Time;durP1;ratioP1;P1;durP2;ratioP2;P2;SDS_P1;SDS_P2;PMS_P1;PMS_P2;Temp;Humidity;BMP_temperature;BMP_pressure;BME280_temperature;BME280_humidity;BME280_pressure;Samples;Min_cycle;Max_cycle;Signal;HPM_P1;HPM_P2
2023/12/07 00:01:40;;;;;;;11.40;7.72;;;2.40;82.80;;;;;;5073813;28;20032;-79
2023/12/07 00:04:06;;;;;;;12.77;8.35;;;2.40;83.00;;;;;;5074001;28;20023;-77
2023/12/07 00:06:32;;;;;;;11.68;7.65;;;2.40;82.80;;;;;;5073707;28;20483;-77
2023/12/07 00:08:58;;;;;;;12.13;8.15;;;2.40;82.80;;;;;;5074060;28;20436;-77
2023/12/07 00:11:24;;;;;;;11.48;7.78;;;2.40;83.50;;;;;;5074491;28;20117;-78
2023/12/07 00:13:50;;;;;;;9.50;7.15;;;2.40;82.60;;;;;;5074068;28;20025;-77
2023/12/07 00:16:15;;;;;;;10.80;7.85;;;2.40;82.40;;;;;;5073768;28;20082;-76
2023/12/07 00:18:41;;;;;;;13.98;9.10;;;2.40;82.40;;;;;;5055471;28;20086;-76
2023/12/07 00:21:10;;;;;;;11.50;8.13;;;2.30;82.40;;;;;;5055753;28;20116;-77
2023/12/07 00:23:37;;;;;;;11.93;7.72;;;2.30;82.50;;;;;;5073536;28;20021;-77
2023/12/07 00:26:03;;;;;;;13.55;8.50;;;2.30;82.30;;;;;;5073533;28;20415;-77
2023/12/07 00:28:29;;;;;;;12.10;7.55;;;2.20;82.40;;;;;;5055583;28;20062;-76
2023/12/07 00:30:55;;;;;;;13.75;8.30;;;2.20;82.60;;;;;;5073556;28;20020;-76
2023/12/07 00:33:21;;;;;;;15.48;9.90;;;2.20;82.60;;;;;;5073038;28;20055;-76
2023/12/07 00:35:47;;;;;;;15.73;10.35;;;2.20;82.50;;;;;;5073021;28;20024;-76
2023/12/07 00:38:13;;;;;;;14.48;9.35;;;2.10;82.80;;;;;;5073225;28;20445;-77
2023/12/07 00:40:39;;;;;;;14.52;9.60;;;2.00;83.00;;;;;;5055316;28;20036;-77
2023/12/07 00:43:05;;;;;;;16.85;9.88;;;2.00;83.20;;;;;;5073224;28;20369;-77
2023/12/07 00:45:31;;;;;;;13.00;8.30;;;1.90;83.30;;;;;;5073167;28;20036;-77
2023/12/07 00:47:57;;;;;;;12.15;7.97;;;2.00;83.30;;;;;;5055153;28;20028;-76
2023/12/07 00:50:23;;;;;;;15.18;8.77;;;2.00;83.20;;;;;;5072862;28;20050;-76
2023/12/07 00:52:48;;;;;;;13.52;9.02;;;2.00;83.10;;;;;;5073026;28;20032;-76
2023/12/07 00:55:14;;;;;;;13.57;8.68;;;2.00;83.00;;;;;;5072856;28;20074;-75
2023/12/07 00:57:40;;;;;;;13.32;9.27;;;1.90;82.90;;;;;;5073020;28;20021;-76
2023/12/07 01:00:06;;;;;;;15.35;9.63;;;2.00;82.80;;;;;;5072875;28;20024;-76
2023/12/07 01:02:32;;;;;;;13.50;9.02;;;1.90;82.80;;;;;;5072674;28;20024;-77
2023/12/07 01:04:57;;;;;;;13.55;8.60;;;1.90;82.80;;;;;;5072705;28;20028;-75
2023/12/07 01:07:23;;;;;;;12.00;8.07;;;1.90;82.80;;;;;;5073057;28;20047;-75
2023/12/07 01:09:48;;;;;;;12.18;7.90;;;1.80;82.60;;;;;;5072912;28;20068;-77
2023/12/07 01:12:15;;;;;;;13.55;8.65;;;1.70;83.10;;;;;;5055164;28;20059;-78
2023/12/07 01:14:41;;;;;;;12.80;8.52;;;1.70;83.00;;;;;;5055235;28;20021;-77
2023/12/07 01:17:06;;;;;;;12.30;8.23;;;1.60;82.90;;;;;;5059242;28;20021;-75
2023/12/07 01:19:32;;;;;;;11.35;7.50;;;1.60;82.90;;;;;;5072897;28;20043;-76
2023/12/07 01:21:57;;;;;;;13.15;8.95;;;1.50;83.10;;;;;;5072910;28;20210;-77
2023/12/07 01:24:23;;;;;;;12.05;8.35;;;1.50;84.10;;;;;;5054818;28;20025;-77
2023/12/07 01:26:48;;;;;;;11.43;8.02;;;1.60;83.20;;;;;;5072832;28;20083;-77
2023/12/07 01:29:14;;;;;;;12.80;8.43;;;1.60;83.10;;;;;;5072968;28;20096;-76
2023/12/07 01:31:40;;;;;;;14.95;8.20;;;1.60;83.00;;;;;;5072532;28;20104;-76
2023/12/07 01:34:06;;;;;;;12.23;8.70;;;1.60;82.90;;;;;;5072522;28;20048;-77
2023/12/07 01:36:32;;;;;;;13.68;8.68;;;1.50;82.70;;;;;;5072627;28;20025;-76
2023/12/07 01:38:58;;;;;;;17.13;9.82;;;1.50;82.80;;;;;;5054757;28;20025;-77
2023/12/07 01:41:24;;;;;;;16.85;8.65;;;1.60;82.70;;;;;;5072560;28;20047;-77
2023/12/07 01:43:50;;;;;;;14.25;7.55;;;1.50;82.80;;;;;;5072709;28;20025;-77
2023/12/07 01:46:16;;;;;;;13.35;7.95;;;1.50;82.70;;;;;;5072583;28;20065;-77
2023/12/07 01:48:43;;;;;;;12.80;7.88;;;1.40;82.70;;;;;;5072581;28;20505;-76
2023/12/07 01:51:10;;;;;;;10.90;7.47;;;1.40;82.60;;;;;;5072489;28;20100;-77
2023/12/07 01:53:37;;;;;;;11.05;7.50;;;1.40;82.70;;;;;;5072356;28;20478;-77
2023/12/07 01:56:03;;;;;;;12.65;7.15;;;1.40;82.80;;;;;;5072383;28;20021;-77
2023/12/07 01:58:30;;;;;;;11.57;7.78;;;1.30;82.80;;;;;;5072349;28;20040;-77
2023/12/07 02:00:56;;;;;;;13.32;8.63;;;1.20;82.90;;;;;;5072475;28;20040;-77
2023/12/07 02:03:21;;;;;;;12.95;8.20;;;1.20;83.40;;;;;;5076297;28;20442;-77
2023/12/07 02:05:48;;;;;;;14.15;9.05;;;1.10;83.40;;;;;;5058267;28;20500;-77
2023/12/07 02:08:14;;;;;;;12.18;7.90;;;1.10;83.50;;;;;;5076082;28;20044;-77
2023/12/07 02:10:40;;;;;;;14.90;8.23;;;1.10;83.40;;;;;;5076177;28;20481;-77
2023/12/07 02:13:06;;;;;;;10.95;7.55;;;1.10;83.40;;;;;;5076037;28;20032;-76
2023/12/07 02:15:33;;;;;;;14.35;8.02;;;1.10;83.40;;;;;;5075842;28;20393;-76
2023/12/07 02:18:28;;;;;;;11.93;7.93;;;1.10;83.30;;;;;;5076036;28;20016;-77
2023/12/07 02:21:34;;;;;;;12.70;7.43;;;1.10;83.10;;;;;;5068542;28;20083;-76
2023/12/07 02:24:01;;;;;;;13.18;7.85;;;1.10;82.90;;;;;;5075922;28;20477;-76
2023/12/07 02:26:35;;;;;;;10.93;7.45;;;1.00;82.70;;;;;;5075736;28;20020;-77
2023/12/07 02:29:00;;;;;;;12.30;7.50;;;0.90;82.90;;;;;;5075845;28;20507;-77
2023/12/07 02:31:26;;;;;;;11.60;7.00;;;0.90;83.00;;;;;;5075571;28;20029;-77
2023/12/07 02:33:52;;;;;;;11.90;8.27;;;0.90;83.00;;;;;;5075383;28;20044;-76
2023/12/07 02:36:21;;;;;;;12.95;7.40;;;0.90;83.10;;;;;;5071550;28;20098;-77
2023/12/07 02:38:50;;;;;;;11.32;8.20;;;0.90;83.00;;;;;;5075663;28;20017;-77
2023/12/07 02:41:17;;;;;;;12.38;8.18;;;0.80;82.70;;;;;;5075467;28;20489;-76
2023/12/07 02:43:43;;;;;;;14.07;8.07;;;0.80;82.70;;;;;;5075589;28;20025;-76
2023/12/07 02:46:09;;;;;;;11.77;7.40;;;0.70;82.60;;;;;;5075536;28;20031;-78
2023/12/07 02:48:34;;;;;;;13.07;7.15;;;0.80;82.70;;;;;;5075440;28;20024;-77
2023/12/07 02:51:00;;;;;;;12.20;7.72;;;0.70;82.50;;;;;;5075500;28;20021;-78
2023/12/07 02:53:25;;;;;;;9.73;7.18;;;0.70;82.50;;;;;;5075392;28;20063;-77
2023/12/07 02:55:51;;;;;;;14.10;7.55;;;0.70;82.50;;;;;;5057480;28;20031;-78
2023/12/07 02:58:16;;;;;;;12.55;7.38;;;0.60;82.30;;;;;;5075626;28;20029;-78
2023/12/07 03:00:42;;;;;;;12.73;7.57;;;0.60;82.50;;;;;;5075755;28;20123;-79
2023/12/07 03:03:07;;;;;;;10.35;6.43;;;0.60;82.50;;;;;;5075468;28;20112;-78
2023/12/07 03:05:33;;;;;;;17.67;6.80;;;0.60;82.30;;;;;;5057167;28;20074;-78
2023/12/07 03:07:58;;;;;;;12.70;6.57;;;0.50;82.40;;;;;;5075035;28;20469;-78
2023/12/07 03:10:24;;;;;;;10.15;6.50;;;0.50;82.50;;;;;;5075217;28;20016;-78
2023/12/07 03:12:49;;;;;;;10.90;6.68;;;0.50;82.40;;;;;;5056847;28;20023;-77
2023/12/07 03:15:15;;;;;;;11.05;6.50;;;0.40;83.10;;;;;;5075248;28;20030;-79
2023/12/07 03:17:40;;;;;;;10.82;6.53;;;0.40;82.20;;;;;;5057189;28;20017;-80
2023/12/07 03:20:08;;;;;;;11.55;7.93;;;0.30;82.40;;;;;;5057033;28;20048;-79
2023/12/07 03:22:34;;;;;;;12.15;8.30;;;0.30;82.20;;;;;;5075039;28;20035;-80
2023/12/07 03:24:59;;;;;;;12.15;8.00;;;0.20;82.20;;;;;;5075070;28;20482;-78
2023/12/07 03:27:25;;;;;;;11.75;7.22;;;0.20;82.40;;;;;;5074859;28;20036;-78
2023/12/07 03:29:51;;;;;;;10.40;7.13;;;0.20;83.30;;;;;;5057474;28;20080;-80
2023/12/07 03:32:17;;;;;;;13.32;7.50;;;0.20;82.70;;;;;;5074786;28;20381;-80
2023/12/07 03:34:42;;;;;;;13.55;7.30;;;0.20;82.40;;;;;;5056551;28;20055;-79
2023/12/07 03:37:08;;;;;;;12.13;6.90;;;0.10;82.30;;;;;;5074754;28;20095;-79
2023/12/07 03:39:33;;;;;;;10.45;6.82;;;0.10;82.20;;;;;;5074740;28;20028;-79
2023/12/07 03:41:59;;;;;;;14.35;6.53;;;0.00;82.30;;;;;;5074665;28;20024;-80
2023/12/07 03:44:26;;;;;;;13.55;7.90;;;0.00;82.20;;;;;;5074484;28;20016;-80
2023/12/07 03:46:52;;;;;;;12.73;7.90;;;-0.10;82.30;;;;;;5074463;28;20453;-80
2023/12/07 03:49:18;;;;;;;11.00;6.63;;;-0.10;82.70;;;;;;5056640;28;20024;-80
2023/12/07 03:51:43;;;;;;;10.85;7.38;;;-0.10;82.60;;;;;;5074381;28;20031;-80
2023/12/07 03:54:09;;;;;;;12.43;6.95;;;-0.10;82.60;;;;;;5074337;28;20054;-80
2023/12/07 03:56:34;;;;;;;15.23;6.43;;;-0.10;82.50;;;;;;5074293;28;20498;-79
2023/12/07 03:59:00;;;;;;;11.45;6.55;;;-0.20;82.40;;;;;;5074354;28;20028;-80
2023/12/07 04:01:28;;;;;;;11.00;6.80;;;-0.20;82.50;;;;;;5056294;28;20480;-80
2023/12/07 04:03:54;;;;;;;10.75;5.90;;;-0.20;82.40;;;;;;5074022;28;20086;-80
2023/12/07 04:06:21;;;;;;;13.35;6.85;;;-0.20;82.00;;;;;;5074175;28;20095;-80
2023/12/07 04:08:47;;;;;;;9.30;6.00;;;-0.30;81.80;;;;;;5074183;28;20511;-81
2023/12/07 04:11:13;;;;;;;12.18;6.72;;;-0.30;81.80;;;;;;5055898;28;20072;-80
2023/12/07 04:13:39;;;;;;;11.32;7.10;;;-0.40;81.90;;;;;;5073752;28;20477;-80
2023/12/07 04:16:05;;;;;;;11.68;6.22;;;-0.40;82.10;;;;;;5073802;28;20483;-81
2023/12/07 04:18:31;;;;;;;10.90;7.28;;;-0.30;82.20;;;;;;5055704;28;20063;-80
2023/12/07 04:20:57;;;;;;;13.32;8.07;;;-0.30;82.10;;;;;;5073830;28;20064;-80
2023/12/07 04:23:22;;;;;;;12.18;7.38;;;-0.30;81.70;;;;;;5073556;28;20021;-79
2023/12/07 04:25:48;;;;;;;13.05;7.13;;;-0.40;81.60;;;;;;5073182;28;20202;-80
2023/12/07 04:28:13;;;;;;;10.07;6.57;;;-0.40;81.50;;;;;;5055670;28;20513;-81
2023/12/07 04:30:39;;;;;;;12.00;6.68;;;-0.40;81.60;;;;;;5073519;28;20558;-80
2023/12/07 04:33:04;;;;;;;13.38;7.88;;;-0.40;81.20;;;;;;5073294;28;20397;-80
2023/12/07 04:35:30;;;;;;;12.23;7.35;;;-0.50;81.00;;;;;;5073455;28;20110;-81
2023/12/07 04:37:56;;;;;;;16.17;7.15;;;-0.60;80.80;;;;;;5073626;28;20393;-80
2023/12/07 04:40:24;;;;;;;12.02;6.88;;;-0.60;80.90;;;;;;5073594;28;20033;-81
2023/12/07 04:42:49;;;;;;;10.68;6.25;;;-0.70;80.80;;;;;;5073433;28;20059;-81
2023/12/07 04:45:15;;;;;;;10.48;5.80;;;-0.80;80.90;;;;;;5073430;28;20056;-80
2023/12/07 04:47:41;;;;;;;11.30;5.63;;;-0.80;81.00;;;;;;5073378;28;20017;-80
2023/12/07 04:50:07;;;;;;;13.18;6.13;;;-0.80;81.10;;;;;;5055448;28;20473;-79
2023/12/07 04:52:33;;;;;;;13.70;7.32;;;-0.90;81.20;;;;;;5073369;28;20031;-80
2023/12/07 04:54:59;;;;;;;11.98;7.45;;;-0.90;81.50;;;;;;5073135;28;20103;-80
2023/12/07 04:57:25;;;;;;;15.18;7.20;;;-1.00;81.50;;;;;;5073052;28;20031;-80
2023/12/07 04:59:51;;;;;;;13.18;6.40;;;-1.00;81.40;;;;;;5072504;28;20385;-80
2023/12/07 05:02:17;;;;;;;11.15;6.57;;;-0.90;81.20;;;;;;5055244;28;20427;-81
2023/12/07 05:04:45;;;;;;;12.93;7.18;;;-1.00;81.20;;;;;;5072953;28;20027;-78
2023/12/07 05:07:12;;;;;;;16.73;7.25;;;-1.00;81.30;;;;;;5072957;28;20025;-78
2023/12/07 05:09:38;;;;;;;9.23;5.43;;;-1.00;81.40;;;;;;5072957;28;20028;-78
2023/12/07 05:12:05;;;;;;;13.35;6.03;;;-1.00;81.40;;;;;;5072884;28;20044;-78
2023/12/07 05:14:34;;;;;;;9.82;5.53;;;-1.00;81.30;;;;;;5072893;28;20027;-79
2023/12/07 05:17:00;;;;;;;13.10;6.68;;;-1.00;80.70;;;;;;5072967;28;20023;-78
2023/12/07 05:19:26;;;;;;;9.95;5.93;;;-1.00;80.40;;;;;;5072694;28;20029;-78
2023/12/07 05:21:52;;;;;;;9.82;6.20;;;-1.10;80.60;;;;;;5072918;28;20029;-77
2023/12/07 05:24:18;;;;;;;12.68;6.57;;;-1.00;80.60;;;;;;5054825;28;20031;-77
2023/12/07 05:26:47;;;;;;;11.73;6.53;;;-1.00;80.40;;;;;;5072935;28;20469;-78
2023/12/07 05:29:13;;;;;;;11.02;5.65;;;-1.00;80.10;;;;;;5072721;28;20025;-78
2023/12/07 05:31:39;;;;;;;11.38;5.40;;;-1.00;79.90;;;;;;5077780;28;20024;-78
2023/12/07 05:34:05;;;;;;;12.05;6.10;;;-1.00;80.00;;;;;;5075668;28;20110;-77
2023/12/07 05:36:31;;;;;;;10.13;5.78;;;-1.10;80.00;;;;;;5073812;28;20029;-78
2023/12/07 05:38:57;;;;;;;16.63;7.85;;;-1.00;79.80;;;;;;5077073;28;20047;-77
2023/12/07 05:41:22;;;;;;;12.82;6.72;;;-1.10;79.40;;;;;;5076662;28;20076;-79
2023/12/07 05:43:48;;;;;;;13.90;7.20;;;-1.20;79.50;;;;;;5076674;28;20096;-78
2023/12/07 05:46:15;;;;;;;15.15;8.07;;;-1.10;79.70;;;;;;5077310;28;20021;-79
2023/12/07 05:48:41;;;;;;;12.77;6.78;;;-1.20;79.00;;;;;;5077481;28;20016;-79
2023/12/07 05:51:13;;;;;;;10.23;6.60;;;-1.30;78.90;;;;;;5077182;28;20384;-77
2023/12/07 05:53:38;;;;;;;12.80;6.60;;;-1.20;79.10;;;;;;5076576;28;20020;-77
2023/12/07 05:56:04;;;;;;;12.60;6.60;;;-1.20;79.10;;;;;;5076575;28;20154;-77
2023/12/07 05:58:30;;;;;;;16.05;7.45;;;-1.20;79.20;;;;;;5076593;28;20107;-78
2023/12/07 06:00:56;;;;;;;21.95;9.52;;;-1.10;79.30;;;;;;5058525;28;20171;-78
2023/12/07 06:03:22;;;;;;;15.40;7.53;;;-1.10;79.30;;;;;;5076042;28;20016;-77
2023/12/07 06:05:49;;;;;;;15.48;7.15;;;-1.00;79.70;;;;;;5076071;28;20029;-76
2023/12/07 06:08:14;;;;;;;15.95;6.95;;;-1.00;78.30;;;;;;5076187;28;20465;-77
2023/12/07 06:10:40;;;;;;;13.57;6.30;;;-1.00;78.20;;;;;;5076083;28;20040;-77
2023/12/07 06:13:05;;;;;;;11.52;6.60;;;-1.10;77.70;;;;;;5076010;28;20021;-77
2023/12/07 06:15:31;;;;;;;9.73;5.45;;;-1.20;78.00;;;;;;5076192;28;20033;-77
2023/12/07 06:17:58;;;;;;;13.63;7.20;;;-1.20;78.70;;;;;;5075959;28;20040;-78
2023/12/07 06:20:25;;;;;;;14.02;7.05;;;-1.30;77.80;;;;;;5075510;28;20048;-77
2023/12/07 06:22:50;;;;;;;13.90;7.60;;;-1.40;78.10;;;;;;5076182;28;20479;-78
2023/12/07 06:25:16;;;;;;;28.88;13.95;;;-1.50;78.30;;;;;;5075709;28;20069;-78
2023/12/07 06:27:42;;;;;;;137.85;65.82;;;-1.60;78.60;;;;;;5057916;28;20017;-78
2023/12/07 06:30:08;;;;;;;184.05;72.20;;;-1.60;78.90;;;;;;5057808;28;20456;-78
2023/12/07 06:32:34;;;;;;;332.67;125.82;;;-1.60;79.20;;;;;;5057610;28;20123;-78
2023/12/07 06:35:00;;;;;;;42.42;23.20;;;-1.60;79.10;;;;;;5075458;28;20099;-77
2023/12/07 06:37:26;;;;;;;42.03;22.08;;;-1.50;78.90;;;;;;5058031;28;20028;-78
2023/12/07 06:39:52;;;;;;;27.52;15.27;;;-1.50;78.90;;;;;;5075485;28;20488;-79
2023/12/07 06:42:18;;;;;;;17.05;10.90;;;-1.50;79.00;;;;;;5058364;28;20033;-78
2023/12/07 06:44:48;;;;;;;16.38;8.77;;;-1.50;78.80;;;;;;5061086;28;20587;-77
2023/12/07 06:47:15;;;;;;;14.93;8.60;;;-1.50;78.80;;;;;;5041545;28;20035;-78
2023/12/07 06:49:40;;;;;;;15.38;9.05;;;-1.50;78.70;;;;;;5057794;28;20389;-77
2023/12/07 06:52:06;;;;;;;14.18;8.63;;;-1.60;78.40;;;;;;5057403;28;20484;-76
2023/12/07 06:54:32;;;;;;;19.42;9.60;;;-1.70;78.60;;;;;;5057570;28;20020;-77
2023/12/07 06:56:57;;;;;;;15.05;9.20;;;-1.80;78.70;;;;;;5040718;28;20055;-77
2023/12/07 06:59:23;;;;;;;15.13;8.35;;;-1.90;79.30;;;;;;5075346;28;20120;-77
2023/12/07 07:01:48;;;;;;;18.55;10.23;;;-1.90;79.40;;;;;;5057022;28;20123;-77
2023/12/07 07:04:14;;;;;;;34.30;18.02;;;-1.80;79.10;;;;;;5057749;28;20439;-77
2023/12/07 07:06:40;;;;;;;29.67;15.68;;;-1.80;79.00;;;;;;5040814;28;20086;-77
2023/12/07 07:09:08;;;;;;;22.98;11.93;;;-1.90;79.10;;;;;;5077398;28;20021;-76
2023/12/07 07:11:34;;;;;;;18.77;9.93;;;-1.80;78.90;;;;;;5062181;28;20464;-77
2023/12/07 07:14:00;;;;;;;14.68;8.55;;;-1.80;78.90;;;;;;5057170;28;20110;-76
2023/12/07 07:16:25;;;;;;;20.17;9.27;;;-1.80;78.70;;;;;;5056853;28;20035;-77
2023/12/07 07:18:51;;;;;;;17.70;8.70;;;-1.80;78.80;;;;;;5057384;28;20376;-77
2023/12/07 07:21:16;;;;;;;17.50;8.77;;;-1.70;78.90;;;;;;5057346;28;20036;-76
2023/12/07 07:23:43;;;;;;;17.70;9.20;;;-1.70;78.50;;;;;;5057311;28;20519;-77
2023/12/07 07:26:08;;;;;;;16.55;9.13;;;-1.80;78.00;;;;;;5075248;28;20086;-78
2023/12/07 07:28:34;;;;;;;15.45;7.72;;;-1.70;78.20;;;;;;5074930;28;20020;-79
2023/12/07 07:31:00;;;;;;;17.17;8.43;;;-1.70;78.10;;;;;;5074731;28;20027;-79
2023/12/07 07:33:26;;;;;;;15.00;8.63;;;-1.70;77.80;;;;;;5056811;28;20127;-78
2023/12/07 07:35:51;;;;;;;16.55;9.27;;;-1.80;77.90;;;;;;5057135;28;20063;-79
2023/12/07 07:38:17;;;;;;;18.35;8.43;;;-1.80;77.80;;;;;;5056368;28;20096;-78
2023/12/07 07:40:45;;;;;;;16.95;8.30;;;-1.70;77.80;;;;;;5036425;28;20044;-78
2023/12/07 07:43:11;;;;;;;17.27;8.20;;;-1.60;77.50;;;;;;5054623;28;20049;-78
2023/12/07 07:45:36;;;;;;;10.82;6.45;;;-1.60;77.00;;;;;;5037161;28;20055;-79
2023/12/07 07:48:02;;;;;;;12.18;6.47;;;-1.60;77.00;;;;;;5020342;28;20074;-82
2023/12/07 07:50:29;;;;;;;14.02;7.03;;;-1.50;77.60;;;;;;5036160;28;20029;-77
2023/12/07 07:52:55;;;;;;;14.02;6.22;;;-1.50;77.20;;;;;;5036994;28;20111;-81
2023/12/07 07:55:21;;;;;;;13.00;6.18;;;-1.50;76.90;;;;;;5020484;28;20123;-80
2023/12/07 07:57:47;;;;;;;13.63;6.45;;;-1.40;76.80;;;;;;5036366;28;20067;-80
2023/12/07 08:00:13;;;;;;;9.85;5.15;;;-1.40;76.70;;;;;;5036056;28;20066;-79
2023/12/07 08:02:38;;;;;;;12.55;5.38;;;-1.30;76.60;;;;;;5036308;28;20344;-80
2023/12/07 08:05:04;;;;;;;10.55;5.32;;;-1.20;76.00;;;;;;5036877;28;20025;-82
2023/12/07 08:07:30;;;;;;;11.43;6.30;;;-1.10;76.10;;;;;;5038287;28;20021;-79
2023/12/07 08:09:55;;;;;;;14.15;7.70;;;-0.90;75.70;;;;;;5038424;28;20021;-75
2023/12/07 08:12:24;;;;;;;13.23;7.75;;;-0.50;85.10;;;;;;5053782;28;20098;-77
2023/12/07 08:14:49;;;;;;;10.85;6.35;;;0.30;86.80;;;;;;5053882;28;20036;-75
2023/12/07 08:17:15;;;;;;;13.35;6.65;;;0.90;83.80;;;;;;5053832;28;20025;-76
2023/12/07 08:19:46;;;;;;;12.05;7.25;;;1.60;79.10;;;;;;5035937;28;20381;-78
2023/12/07 08:22:11;;;;;;;13.45;7.20;;;2.10;73.80;;;;;;5036194;28;20032;-77
2023/12/07 08:24:39;;;;;;;13.65;7.15;;;2.40;68.30;;;;;;5035982;28;20106;-78
2023/12/07 08:27:05;;;;;;;10.88;6.88;;;2.60;65.00;;;;;;5038299;28;20052;-80
2023/12/07 08:29:30;;;;;;;13.95;7.32;;;2.70;64.50;;;;;;5037613;28;20496;-76
2023/12/07 08:31:56;;;;;;;13.70;6.32;;;2.70;63.80;;;;;;5057228;28;20033;-79
2023/12/07 08:34:22;;;;;;;10.98;6.43;;;2.80;62.40;;;;;;5040838;28;20037;-78
2023/12/07 08:36:47;;;;;;;12.32;6.20;;;2.90;61.40;;;;;;5045192;28;20036;-81
2023/12/07 08:39:13;;;;;;;8.32;6.30;;;3.20;62.30;;;;;;5043756;28;20029;-78
2023/12/07 08:41:39;;;;;;;14.00;9.13;;;3.90;61.50;;;;;;5055362;28;20048;-82
2023/12/07 08:44:06;;;;;;;12.43;8.93;;;4.40;56.80;;;;;;5035710;28;20020;-76
2023/12/07 08:46:31;;;;;;;12.13;8.00;;;4.60;56.30;;;;;;5035628;28;20027;-76
2023/12/07 08:48:57;;;;;;;11.10;7.28;;;4.50;53.30;;;;;;5053494;28;20029;-77
2023/12/07 08:51:23;;;;;;;12.35;8.85;;;4.50;52.80;;;;;;5053306;28;20096;-77
2023/12/07 08:56:25;;;;;;;;;;;4.20;53.50;;;;;;5281447;23;20053;-77
2023/12/07 08:58:51;;;;;;;16.85;12.55;;;3.90;54.20;;;;;;5048482;28;20007;-77
2023/12/07 09:04:20;;;;;;;17.73;12.15;;;3.10;56.50;;;;;;5500230;23;20083;-77
2023/12/07 09:06:45;;;;;;;19.20;12.48;;;2.80;58.40;;;;;;5051700;28;20033;-78
2023/12/07 09:11:51;;;;;;;15.13;9.20;;;3.10;59.40;;;;;;5343751;23;20136;-77
2023/12/07 09:14:16;;;;;;;12.45;8.13;;;3.50;58.80;;;;;;5051557;28;20059;-79
2023/12/07 09:16:46;;;;;;;10.63;8.18;;;3.70;57.90;;;;;;5051510;28;20116;-78
2023/12/07 09:19:13;;;;;;;8.38;6.95;;;3.70;58.20;;;;;;5051716;28;20021;-78
2023/12/07 09:21:42;;;;;;;13.02;8.23;;;3.70;58.20;;;;;;5046106;28;20090;-77
2023/12/07 09:24:07;;;;;;;12.43;8.07;;;3.80;58.70;;;;;;5051656;28;20068;-78
2023/12/07 09:26:34;;;;;;;14.45;9.98;;;4.10;59.00;;;;;;5045929;28;20032;-78
2023/12/07 09:28:59;;;;;;;11.18;8.27;;;4.30;57.90;;;;;;5057236;28;20025;-78
2023/12/07 09:31:25;;;;;;;10.77;8.10;;;4.20;57.60;;;;;;5044196;28;20057;-78
2023/12/07 09:33:53;;;;;;;11.68;7.18;;;4.30;57.50;;;;;;5051705;28;20096;-77
2023/12/07 09:36:21;;;;;;;12.52;8.00;;;4.40;57.30;;;;;;5051313;28;20089;-78
2023/12/07 09:38:47;;;;;;;13.05;8.95;;;4.50;57.20;;;;;;5051368;28;20107;-78
2023/12/07 09:41:12;;;;;;;11.40;9.05;;;4.80;56.60;;;;;;5051556;28;20076;-77
2023/12/07 09:43:38;;;;;;;14.70;9.43;;;5.00;56.30;;;;;;5046310;28;20024;-78
2023/12/07 09:46:05;;;;;;;13.30;9.60;;;5.00;56.00;;;;;;5051141;28;20033;-78
2023/12/07 09:48:31;;;;;;;13.55;9.25;;;5.00;55.80;;;;;;5044898;28;20025;-79
2023/12/07 09:58:45;;;;;;;12.93;8.40;;;5.80;54.20;;;;;;5880875;23;20309;-80
2023/12/07 10:11:30;;;;;;;12.50;7.22;;;6.80;50.60;;;;;;5049135;28;19953;-77
2023/12/07 10:13:56;;;;;;;10.25;6.55;;;7.20;50.60;;;;;;5034093;28;20017;-77
2023/12/07 10:16:22;;;;;;;7.25;6.03;;;7.40;48.80;;;;;;5051773;28;20032;-77
2023/12/07 10:18:49;;;;;;;7.90;5.35;;;7.70;47.30;;;;;;5031500;28;20040;-77
2023/12/07 10:21:15;;;;;;;10.25;5.10;;;8.00;45.90;;;;;;5050019;28;20150;-80
2023/12/07 10:23:43;;;;;;;9.18;5.20;;;8.20;44.30;;;;;;5050009;28;20498;-76
2023/12/07 10:26:10;;;;;;;8.27;4.80;;;8.50;43.40;;;;;;5055668;28;20361;-82
2023/12/07 10:28:39;;;;;;;9.10;5.13;;;8.60;42.70;;;;;;5055304;28;20433;-77
2023/12/07 10:31:09;;;;;;;6.07;4.38;;;8.50;42.80;;;;;;5046211;28;20036;-77
2023/12/07 10:33:34;;;;;;;6.90;4.10;;;8.70;41.50;;;;;;5039332;28;20021;-76
2023/12/07 10:36:03;;;;;;;5.50;4.38;;;8.80;40.50;;;;;;5038491;28;20031;-76
2023/12/07 10:38:30;;;;;;;7.45;4.28;;;8.80;40.20;;;;;;5055290;28;20171;-78
2023/12/07 10:41:06;;;;;;;6.93;4.30;;;8.80;40.60;;;;;;5055334;28;20037;-77
2023/12/07 10:43:35;;;;;;;6.95;4.30;;;9.00;39.80;;;;;;5036924;28;20628;-77
2023/12/07 10:46:01;;;;;;;4.63;3.83;;;9.20;39.20;;;;;;5055257;28;20440;-77
2023/12/07 10:48:30;;;;;;;6.43;3.97;;;9.10;38.40;;;;;;5054618;28;20056;-78
2023/12/07 10:54:04;;;;;;;6.13;4.03;;;9.60;38.10;;;;;;4993990;28;20030;-80
2023/12/07 10:56:39;;;;;;;5.85;3.30;;;9.90;36.20;;;;;;5002127;28;20115;-76
2023/12/07 10:59:15;;;;;;;5.10;3.83;;;10.20;36.10;;;;;;5056336;28;20025;-75
2023/12/07 11:01:42;;;;;;;5.15;3.50;;;10.60;34.40;;;;;;5036706;28;20028;-75
2023/12/07 11:04:12;;;;;;;5.80;3.30;;;10.80;34.10;;;;;;5054210;28;20104;-74
2023/12/07 11:06:40;;;;;;;3.40;3.10;;;11.30;33.70;;;;;;5054690;28;20404;-74
2023/12/07 11:09:13;;;;;;;4.57;2.63;;;11.60;31.40;;;;;;5054354;28;20029;-77
2023/12/07 11:12:04;;;;;;;4.55;3.15;;;11.80;30.40;;;;;;5054430;28;20127;-75
2023/12/07 11:14:30;;;;;;;6.45;4.40;;;12.30;29.50;;;;;;5053793;28;20123;-77
2023/12/07 11:16:56;;;;;;;4.20;3.03;;;12.40;28.20;;;;;;5036210;28;20189;-75
2023/12/07 11:19:36;;;;;;;6.63;3.60;;;12.30;28.60;;;;;;5054437;28;20060;-76
2023/12/07 11:22:05;;;;;;;4.82;3.58;;;12.80;28.60;;;;;;5054456;28;20037;-75
2023/12/07 11:24:31;;;;;;;5.60;3.00;;;13.40;27.40;;;;;;5054684;28;20533;-76
2023/12/07 11:26:58;;;;;;;5.93;3.25;;;14.10;26.00;;;;;;5054625;28;20103;-76
2023/12/07 11:29:28;;;;;;;4.65;2.75;;;14.80;24.70;;;;;;5036727;28;20021;-79
2023/12/07 11:32:03;;;;;;;5.78;3.15;;;15.40;23.10;;;;;;5037210;28;20083;-78
2023/12/07 11:34:39;;;;;;;5.10;2.75;;;15.60;22.40;;;;;;5036686;28;20029;-77
2023/12/07 11:37:32;;;;;;;5.38;3.05;;;15.70;21.30;;;;;;5036773;28;20033;-81
2023/12/07 11:39:58;;;;;;;5.00;3.03;;;15.40;21.60;;;;;;5049133;28;20076;-76
2023/12/07 11:42:26;;;;;;;3.38;2.40;;;15.20;22.50;;;;;;5035973;28;20063;-77
2023/12/07 11:44:52;;;;;;;3.17;2.58;;;14.60;23.10;;;;;;5054594;28;20044;-77
2023/12/07 11:47:30;;;;;;;3.50;2.70;;;14.50;23.40;;;;;;5036362;28;20432;-77
2023/12/07 11:50:06;;;;;;;4.10;2.50;;;14.90;23.40;;;;;;5036203;28;20032;-77
2023/12/07 11:52:33;;;;;;;2.83;2.30;;;15.70;22.20;;;;;;5035723;28;20128;-79
2023/12/07 11:55:00;;;;;;;4.28;2.80;;;16.50;21.00;;;;;;5036031;28;20029;-79
2023/12/07 11:57:26;;;;;;;3.33;2.13;;;16.80;19.90;;;;;;5035868;28;20036;-77
2023/12/07 11:59:52;;;;;;;3.67;2.38;;;17.30;19.20;;;;;;5019304;28;20032;-76
2023/12/07 12:02:18;;;;;;;2.80;2.10;;;18.10;18.80;;;;;;5035777;28;20401;-78
2023/12/07 12:04:43;;;;;;;4.00;2.40;;;19.00;17.30;;;;;;5035470;28;20495;-78
2023/12/07 12:07:11;;;;;;;2.25;1.83;;;20.20;16.10;;;;;;5035729;28;20032;-76
2023/12/07 12:09:37;;;;;;;2.38;1.88;;;21.00;14.40;;;;;;5053238;28;20073;-77
2023/12/07 12:12:03;;;;;;;2.85;2.05;;;22.00;13.20;;;;;;5035959;28;20052;-77
2023/12/07 12:14:29;;;;;;;3.42;2.10;;;22.20;12.10;;;;;;5036120;28;20021;-76
2023/12/07 12:16:56;;;;;;;4.63;2.30;;;22.30;12.20;;;;;;5053736;28;20367;-79
2023/12/07 12:19:23;;;;;;;2.88;1.80;;;20.80;12.40;;;;;;5035848;28;20485;-77
2023/12/07 12:21:50;;;;;;;3.03;1.90;;;20.10;13.90;;;;;;5035890;28;20016;-78
2023/12/07 12:24:15;;;;;;;4.05;1.95;;;20.40;14.30;;;;;;5039956;28;20029;-78
2023/12/07 12:26:42;;;;;;;2.25;2.00;;;20.50;13.60;;;;;;5035481;28;20545;-76
2023/12/07 12:29:08;;;;;;;2.78;1.92;;;19.40;14.50;;;;;;5053201;28;20021;-78
2023/12/07 12:31:35;;;;;;;3.53;2.28;;;18.90;15.50;;;;;;5053365;28;20059;-79
2023/12/07 12:34:02;;;;;;;3.75;2.30;;;18.20;16.10;;;;;;5035557;28;20101;-76
2023/12/07 12:36:29;;;;;;;2.88;1.83;;;18.10;16.80;;;;;;5053214;28;20401;-77
2023/12/07 12:38:55;;;;;;;2.97;2.03;;;18.20;17.70;;;;;;5035462;28;20504;-76
2023/12/07 12:41:22;;;;;;;2.42;2.10;;;17.70;17.20;;;;;;5053499;28;20055;-77
2023/12/07 12:43:47;;;;;;;5.07;2.45;;;18.00;17.40;;;;;;5053398;28;20021;-78
2023/12/07 12:46:14;;;;;;;2.47;2.05;;;18.80;16.50;;;;;;5034978;28;20021;-77
2023/12/07 12:48:57;;;;;;;2.45;2.17;;;19.80;15.70;;;;;;5035605;28;20031;-77
2023/12/07 12:51:25;;;;;;;3.55;2.40;;;20.00;15.30;;;;;;5053219;28;20489;-77
2023/12/07 12:53:52;;;;;;;2.97;2.30;;;20.90;14.60;;;;;;5053187;28;20085;-77
2023/12/07 12:56:20;;;;;;;2.30;2.10;;;21.10;14.00;;;;;;5027149;28;20029;-78
2023/12/07 12:58:46;;;;;;;2.35;1.73;;;21.30;13.90;;;;;;5035341;28;20381;-77
2023/12/07 13:01:11;;;;;;;2.50;2.05;;;21.50;13.40;;;;;;5052936;28;20044;-78
2023/12/07 13:03:37;;;;;;;2.00;1.80;;;21.70;13.30;;;;;;5053322;28;20029;-77
2023/12/07 13:06:03;;;;;;;2.58;2.00;;;21.40;13.30;;;;;;5035190;28;20025;-78
2023/12/07 13:08:32;;;;;;;2.17;1.80;;;20.70;13.90;;;;;;5035377;28;20108;-79
2023/12/07 13:10:58;;;;;;;3.03;2.03;;;20.20;14.70;;;;;;5052938;28;20052;-78